Aviation Digital Data Service (ADDS)

Output produced by METARs form (0235 UTC 24 August 2016)
found at http://www.aviationweather.gov/adds/metars/
 
KLGA 232336Z 2400/2424 17009KT P6SM FEW070 
     FM240200 VRB05KT P6SM SKC 
     FM241700 19009KT P6SM SKC